Time;durP1;ratioP1;P1;durP2;ratioP2;P2;SDS_P1;SDS_P2;PMS_P1;PMS_P2;Temp;Humidity;BMP_temperature;BMP_pressure;BME280_temperature;BME280_humidity;BME280_pressure;Samples;Min_cycle;Max_cycle;Signal;HPM_P1;HPM_P2
2023/08/27 00:02:49;;;;;;;;;;;;;;;;;;6346187;28;19935;-77
2023/08/27 00:05:51;;;;;;;;;;;;;;;;;;6341957;28;19923;-77
2023/08/27 00:08:52;;;;;;;;;;;;;;;;;;6345719;28;19927;-77
2023/08/27 00:11:53;;;;;;;;;;;;;;;;;;6345421;28;19924;-76
2023/08/27 00:14:54;;;;;;;;;;;;;;;;;;6346894;28;19920;-76
2023/08/27 00:17:56;;;;;;;;;;;;;;;;;;6349608;28;19957;-76
2023/08/27 00:20:57;;;;;;;;;;;;;;;;;;6342461;28;20085;-77
2023/08/27 00:23:58;;;;;;;;;;;;;;;;;;6345585;28;19928;-77
2023/08/27 00:26:59;;;;;;;;;;;;;;;;;;6342687;28;20310;-76
2023/08/27 00:30:01;;;;;;;;;;;;;;;;;;6347298;28;19920;-76
2023/08/27 00:33:04;;;;;;;;;;;;;;;;;;6343719;28;19938;-77
2023/08/27 00:36:05;;;;;;;;;;;;;;;;;;6342228;28;19919;-77
2023/08/27 00:39:06;;;;;;;;;;;;;;;;;;6341160;28;19928;-76
2023/08/27 00:42:08;;;;;;;;;;;;;;;;;;6345111;28;19935;-77
2023/08/27 00:45:09;;;;;;;;;;;;;;;;;;6347549;28;19982;-77
2023/08/27 00:48:11;;;;;;;;;;;;;;;;;;6343484;28;19971;-76
2023/08/27 00:51:12;;;;;;;;;;;;;;;;;;6348287;28;19920;-77
2023/08/27 00:54:13;;;;;;;;;;;;;;;;;;6342534;28;19998;-77
2023/08/27 00:57:14;;;;;;;;;;;;;;;;;;6341824;28;19935;-76
2023/08/27 01:00:16;;;;;;;;;;;;;;;;;;6345249;28;19934;-77
2023/08/27 01:03:17;;;;;;;;;;;;;;;;;;6345766;28;19928;-76
2023/08/27 01:06:18;;;;;;;;;;;;;;;;;;6343924;28;20698;-76
2023/08/27 01:09:20;;;;;;;;;;;;;;;;;;6345747;28;19973;-76
2023/08/27 01:12:22;;;;;;;;;;;;;;;;;;6344181;28;19955;-76
2023/08/27 01:15:23;;;;;;;;;;;;;;;;;;6339636;28;19920;-76
2023/08/27 01:18:24;;;;;;;;;;;;;;;;;;6346648;28;19962;-76
2023/08/27 01:21:26;;;;;;;;;;;;;;;;;;6349922;28;20014;-76
2023/08/27 01:24:27;;;;;;;;;;;;;;;;;;6343540;28;19919;-76
2023/08/27 01:27:28;;;;;;;;;;;;;;;;;;6347411;28;19928;-76
2023/08/27 01:30:29;;;;;;;;;;;;;;;;;;6342211;28;19977;-77
2023/08/27 01:33:31;;;;;;;;;;;;;;;;;;6347370;28;19932;-76
2023/08/27 01:36:34;;;;;;;;;;;;;;;;;;6344998;28;19919;-77
2023/08/27 01:39:36;;;;;;;;;;;;;;;;;;6347263;28;20231;-76
2023/08/27 01:42:37;;;;;;;;;;;;;;;;;;6344140;28;19928;-77
2023/08/27 01:45:38;;;;;;;;;;;;;;;;;;6348369;28;20112;-77
2023/08/27 01:48:39;;;;;;;;;;;;;;;;;;6346050;28;20236;-77
2023/08/27 01:51:41;;;;;;;;;;;;;;;;;;6351672;28;19919;-77
2023/08/27 01:54:42;;;;;;;;;;;;;;;;;;6351477;28;20096;-76
2023/08/27 01:57:45;;;;;;;;;;;;;;;;;;6347895;28;19932;-77
2023/08/27 02:00:46;;;;;;;;;;;;;;;;;;6348241;28;19947;-76
2023/08/27 02:03:47;;;;;;;;;;;;;;;;;;6351142;28;19950;-76
2023/08/27 02:06:48;;;;;;;;;;;;;;;;;;6349201;28;19926;-76
2023/08/27 02:09:50;;;;;;;;;;;;;;;;;;6348896;28;19934;-76
2023/08/27 02:12:51;;;;;;;;;;;;;;;;;;6347843;28;19928;-77
2023/08/27 02:15:52;;;;;;;;;;;;;;;;;;6349894;28;19920;-77
2023/08/27 02:18:53;;;;;;;;;;;;;;;;;;6350214;28;20190;-76
2023/08/27 02:21:54;;;;;;;;;;;;;;;;;;6352402;28;19923;-77
2023/08/27 02:24:56;;;;;;;;;;;;;;;;;;6349601;28;19935;-76
2023/08/27 02:27:57;;;;;;;;;;;;;;;;;;6344750;28;19927;-77
2023/08/27 02:30:58;;;;;;;;;;;;;;;;;;6349563;28;21131;-76
2023/08/27 02:33:59;;;;;;;;;;;;;;;;;;6349541;28;20208;-77
2023/08/27 02:37:01;;;;;;;;;;;;;;;;;;6347796;28;19935;-76
2023/08/27 02:40:02;;;;;;;;;;;;;;;;;;6348213;28;19928;-76
2023/08/27 02:43:04;;;;;;;;;;;;;;;;;;6347972;28;19950;-77
2023/08/27 02:46:06;;;;;;;;;;;;;;;;;;6350295;28;20185;-77
2023/08/27 02:49:07;;;;;;;;;;;;;;;;;;6348789;28;20048;-76
2023/08/27 02:52:08;;;;;;;;;;;;;;;;;;6346930;28;19928;-76
2023/08/27 02:55:10;;;;;;;;;;;;;;;;;;6346041;28;20124;-76
2023/08/27 02:58:11;;;;;;;;;;;;;;;;;;6343319;28;20235;-77
2023/08/27 03:01:12;;;;;;;;;;;;;;;;;;6347502;28;19928;-77
2023/08/27 03:04:13;;;;;;;;;;;;;;;;;;6349319;28;19934;-76
2023/08/27 03:07:15;;;;;;;;;;;;;;;;;;6347235;28;19924;-76
2023/08/27 03:10:16;;;;;;;;;;;;;;;;;;6344682;28;21903;-76
2023/08/27 03:13:17;;;;;;;;;;;;;;;;;;6346053;28;20232;-76
2023/08/27 03:16:18;;;;;;;;;;;;;;;;;;6347885;28;19936;-76
2023/08/27 03:19:19;;;;;;;;;;;;;;;;;;6346174;28;19926;-76
2023/08/27 03:22:21;;;;;;;;;;;;;;;;;;6347614;28;20115;-77
2023/08/27 03:25:22;;;;;;;;;;;;;;;;;;6347693;28;19923;-76
2023/08/27 03:28:23;;;;;;;;;;;;;;;;;;6347893;28;19928;-76
2023/08/27 03:31:24;;;;;;;;;;;;;;;;;;6349221;28;19920;-78
2023/08/27 03:34:25;;;;;;;;;;;;;;;;;;6345485;28;20234;-76
2023/08/27 03:37:27;;;;;;;;;;;;;;;;;;6349493;28;19972;-76
2023/08/27 03:40:28;;;;;;;;;;;;;;;;;;6346914;28;19927;-78
2023/08/27 03:43:29;;;;;;;;;;;;;;;;;;6346678;28;19928;-78
2023/08/27 03:46:30;;;;;;;;;;;;;;;;;;6344841;28;19950;-78
2023/08/27 03:49:32;;;;;;;;;;;;;;;;;;6347510;28;19920;-78
2023/08/27 03:52:34;;;;;;;;;;;;;;;;;;6345346;28;20143;-78
2023/08/27 03:55:35;;;;;;;;;;;;;;;;;;6347108;28;21640;-78
2023/08/27 03:58:36;;;;;;;;;;;;;;;;;;6343769;28;19923;-78
2023/08/27 04:01:38;;;;;;;;;;;;;;;;;;6347277;28;19928;-76
2023/08/27 04:04:39;;;;;;;;;;;;;;;;;;6346408;28;19943;-78
2023/08/27 04:07:40;;;;;;;;;;;;;;;;;;6348247;28;19919;-78
2023/08/27 04:10:41;;;;;;;;;;;;;;;;;;6343280;28;19919;-78
2023/08/27 04:13:43;;;;;;;;;;;;;;;;;;6343865;28;19935;-77
2023/08/27 04:16:44;;;;;;;;;;;;;;;;;;6341297;28;19928;-76
2023/08/27 04:19:45;;;;;;;;;;;;;;;;;;6345911;28;20567;-77
2023/08/27 04:22:46;;;;;;;;;;;;;;;;;;6347887;28;19920;-77
2023/08/27 04:25:47;;;;;;;;;;;;;;;;;;6345447;28;19928;-76
2023/08/27 04:28:50;;;;;;;;;;;;;;;;;;6341649;28;19920;-77
2023/08/27 04:31:51;;;;;;;;;;;;;;;;;;6345639;28;19934;-76
2023/08/27 04:34:52;;;;;;;;;;;;;;;;;;6344179;28;19920;-76
2023/08/27 04:37:54;;;;;;;;;;;;;;;;;;6349084;28;19938;-77
2023/08/27 04:40:55;;;;;;;;;;;;;;;;;;6346517;28;19920;-77
2023/08/27 04:43:56;;;;;;;;;;;;;;;;;;6347044;28;20200;-76
2023/08/27 04:46:57;;;;;;;;;;;;;;;;;;6344133;28;19927;-76
2023/08/27 04:49:59;;;;;;;;;;;;;;;;;;6346363;28;19927;-77
2023/08/27 04:53:00;;;;;;;;;;;;;;;;;;6347230;28;19924;-76
2023/08/27 04:56:01;;;;;;;;;;;;;;;;;;6344780;28;20434;-76
2023/08/27 04:59:02;;;;;;;;;;;;;;;;;;6344798;28;20005;-76
2023/08/27 05:02:03;;;;;;;;;;;;;;;;;;6345178;28;19932;-78
2023/08/27 05:05:05;;;;;;;;;;;;;;;;;;6346129;28;19923;-77
2023/08/27 05:08:06;;;;;;;;;;;;;;;;;;6344697;28;19939;-77
2023/08/27 05:11:07;;;;;;;;;;;;;;;;;;6344074;28;19993;-77
2023/08/27 05:14:08;;;;;;;;;;;;;;;;;;6345693;28;19928;-77
2023/08/27 05:17:10;;;;;;;;;;;;;;;;;;6346189;28;19942;-78
2023/08/27 05:20:11;;;;;;;;;;;;;;;;;;6344314;28;20202;-77
2023/08/27 05:23:12;;;;;;;;;;;;;;;;;;6343157;28;19928;-76
2023/08/27 05:26:13;;;;;;;;;;;;;;;;;;6344282;28;19993;-77
2023/08/27 05:29:15;;;;;;;;;;;;;;;;;;6344051;28;19959;-77
2023/08/27 05:32:16;;;;;;;;;;;;;;;;;;6346016;28;20150;-77
2023/08/27 05:35:17;;;;;;;;;;;;;;;;;;6344044;28;19977;-78
2023/08/27 05:38:18;;;;;;;;;;;;;;;;;;6343196;28;20353;-77
2023/08/27 05:41:20;;;;;;;;;;;;;;;;;;6342973;28;19928;-77
2023/08/27 05:44:21;;;;;;;;;;;;;;;;;;6343080;28;19928;-77
2023/08/27 05:47:22;;;;;;;;;;;;;;;;;;6343522;28;19927;-76
2023/08/27 05:50:24;;;;;;;;;;;;;;;;;;6345734;28;19939;-79
2023/08/27 05:53:25;;;;;;;;;;;;;;;;;;6343451;28;20193;-77
2023/08/27 05:56:27;;;;;;;;;;;;;;;;;;6341140;28;19920;-76
2023/08/27 05:59:28;;;;;;;;;;;;;;;;;;6343635;28;19927;-79
2023/08/27 06:02:29;;;;;;;;;;;;;;;;;;6344238;28;19965;-79
2023/08/27 06:05:31;;;;;;;;;;;;;;;;;;6343640;28;20196;-79
2023/08/27 06:08:32;;;;;;;;;;;;;;;;;;6341974;28;19924;-77
2023/08/27 06:11:33;;;;;;;;;;;;;;;;;;6344071;28;19920;-77
2023/08/27 06:14:35;;;;;;;;;;;;;;;;;;6343167;28;19932;-77
2023/08/27 06:17:36;;;;;;;;;;;;;;;;;;6344304;28;19935;-77
2023/08/27 06:20:38;;;;;;;;;;;;;;;;;;6340405;28;19935;-77
2023/08/27 06:23:39;;;;;;;;;;;;;;;;;;6344226;28;19996;-77
2023/08/27 06:26:40;;;;;;;;;;;;;;;;;;6343147;28;19920;-77
2023/08/27 06:29:41;;;;;;;;;;;;;;;;;;6343521;28;20208;-77
2023/08/27 06:32:43;;;;;;;;;;;;;;;;;;6346633;28;19935;-77
2023/08/27 06:35:44;;;;;;;;;;;;;;;;;;6346457;28;19953;-77
2023/08/27 06:38:45;;;;;;;;;;;;;;;;;;6351182;28;20215;-77
2023/08/27 06:41:46;;;;;;;;;;;;;;;;;;6348081;28;19990;-77
2023/08/27 06:44:47;;;;;;;;;;;;;;;;;;6346655;28;19931;-77
2023/08/27 06:47:49;;;;;;;;;;;;;;;;;;6347155;28;20122;-77
2023/08/27 06:50:50;;;;;;;;;;;;;;;;;;6345797;28;19935;-77
2023/08/27 06:53:51;;;;;;;;;;;;;;;;;;6349756;28;19990;-77
2023/08/27 06:56:52;;;;;;;;;;;;;;;;;;6348830;28;19982;-77
2023/08/27 06:59:54;;;;;;;;;;;;;;;;;;6348255;28;19928;-77
2023/08/27 07:02:55;;;;;;;;;;;;;;;;;;6346930;28;19942;-77
2023/08/27 07:05:56;;;;;;;;;;;;;;;;;;6345545;28;19961;-77
2023/08/27 07:08:57;;;;;;;;;;;;;;;;;;6347822;28;20124;-77
2023/08/27 07:11:59;;;;;;;;;;;;;;;;;;6345828;28;19924;-77
2023/08/27 07:15:00;;;;;;;;;;;;;;;;;;6344604;28;19928;-77
2023/08/27 07:18:02;;;;;;;;;;;;;;;;;;6344883;28;19934;-77
2023/08/27 07:21:03;;;;;;;;;;;;;;;;;;6349823;28;19927;-77
2023/08/27 07:24:04;;;;;;;;;;;;;;;;;;6349598;28;19919;-77
2023/08/27 07:27:06;;;;;;;;;;;;;;;;;;6345798;28;19932;-77
2023/08/27 07:30:07;;;;;;;;;;;;;;;;;;6346328;28;19932;-78
2023/08/27 07:33:10;;;;;;;;;;;;;;;;;;6347497;28;19927;-77
2023/08/27 07:36:12;;;;;;;;;;;;;;;;;;6346091;28;19939;-77
2023/08/27 07:39:14;;;;;;;;;;;;;;;;;;6348777;28;20208;-77
2023/08/27 07:42:15;;;;;;;;;;;;;;;;;;6346288;28;19919;-77
2023/08/27 07:45:16;;;;;;;;;;;;;;;;;;6347096;28;19951;-77
2023/08/27 07:48:18;;;;;;;;;;;;;;;;;;6345139;28;19934;-77
2023/08/27 07:51:19;;;;;;;;;;;;;;;;;;6345871;28;19963;-77
2023/08/27 07:54:20;;;;;;;;;;;;;;;;;;6347250;28;19970;-77
2023/08/27 07:57:21;;;;;;;;;;;;;;;;;;6345854;28;20120;-77
2023/08/27 08:00:23;;;;;;;;;;;;;;;;;;6345793;28;19924;-77
2023/08/27 08:03:24;;;;;;;;;;;;;;;;;;6345077;28;19920;-76
2023/08/27 08:06:25;;;;;;;;;;;;;;;;;;6346464;28;19931;-76
2023/08/27 08:09:26;;;;;;;;;;;;;;;;;;6345416;28;19931;-77
2023/08/27 08:12:28;;;;;;;;;;;;;;;;;;6344935;28;20176;-77
2023/08/27 08:15:29;;;;;;;;;;;;;;;;;;6343165;28;19928;-76
2023/08/27 08:18:30;;;;;;;;;;;;;;;;;;6344254;28;20104;-77
2023/08/27 08:21:31;;;;;;;;;;;;;;;;;;6347140;28;19935;-77
2023/08/27 08:24:32;;;;;;;;;;;;;;;;;;6346859;28;19919;-77
2023/08/27 08:27:34;;;;;;;;;;;;;;;;;;6344011;28;20212;-77
2023/08/27 08:30:35;;;;;;;;;;;;;;;;;;6346838;28;19928;-77
2023/08/27 08:33:36;;;;;;;;;;;;;;;;;;6347654;28;19923;-76
2023/08/27 08:36:37;;;;;;;;;;;;;;;;;;6343569;28;19920;-77
2023/08/27 08:39:40;;;;;;;;;;;;;;;;;;6344965;28;19924;-77
2023/08/27 08:42:41;;;;;;;;;;;;;;;;;;6345594;28;19920;-77
2023/08/27 08:45:42;;;;;;;;;;;;;;;;;;6344997;28;20117;-77
2023/08/27 08:48:43;;;;;;;;;;;;;;;;;;6345633;28;19941;-77
2023/08/27 08:51:45;;;;;;;;;;;;;;;;;;6344605;28;19928;-77
2023/08/27 08:54:46;;;;;;;;;;;;;;;;;;6343094;28;20151;-77
2023/08/27 08:57:47;;;;;;;;;;;;;;;;;;6343398;28;20120;-77
2023/08/27 09:00:48;;;;;;;;;;;;;;;;;;6342804;28;20202;-77
2023/08/27 09:03:50;;;;;;;;;;;;;;;;;;6344564;28;19928;-77
2023/08/27 09:06:51;;;;;;;;;;;;;;;;;;6342635;28;19923;-77
2023/08/27 09:09:52;;;;;;;;;;;;;;;;;;6343294;28;19938;-77
2023/08/27 09:12:55;;;;;;;;;;;;;;;;;;6345014;28;19920;-77
2023/08/27 09:15:57;;;;;;;;;;;;;;;;;;6342763;28;20171;-77
2023/08/27 09:18:58;;;;;;;;;;;;;;;;;;6341601;28;19928;-77
2023/08/27 09:21:59;;;;;;;;;;;;;;;;;;6348023;28;19923;-77
2023/08/27 09:25:00;;;;;;;;;;;;;;;;;;6344486;28;19935;-77
2023/08/27 09:28:01;;;;;;;;;;;;;;;;;;6343665;28;19935;-77
2023/08/27 09:31:03;;;;;;;;;;;;;;;;;;6345225;28;20030;-77
2023/08/27 09:34:04;;;;;;;;;;;;;;;;;;6345188;28;19931;-76
2023/08/27 09:37:05;;;;;;;;;;;;;;;;;;6348082;28;20085;-77
2023/08/27 09:40:06;;;;;;;;;;;;;;;;;;6341310;28;19935;-78
2023/08/27 09:43:07;;;;;;;;;;;;;;;;;;6341939;28;19989;-77
2023/08/27 09:46:09;;;;;;;;;;;;;;;;;;6344388;28;19926;-77
2023/08/27 09:49:10;;;;;;;;;;;;;;;;;;6343595;28;19935;-76
2023/08/27 09:52:11;;;;;;;;;;;;;;;;;;6344689;28;19927;-77
2023/08/27 09:55:12;;;;;;;;;;;;;;;;;;6345258;28;19936;-77
2023/08/27 09:58:13;;;;;;;;;;;;;;;;;;6345055;28;19935;-77
2023/08/27 10:01:15;;;;;;;;;;;;;;;;;;6344703;28;19932;-77
2023/08/27 10:04:17;;;;;;;;;;;;;;;;;;6343892;28;19932;-77
2023/08/27 10:07:18;;;;;;;;;;;;;;;;;;6344439;28;19932;-77
2023/08/27 10:10:19;;;;;;;;;;;;;;;;;;6347472;28;20097;-77
2023/08/27 10:13:21;;;;;;;;;;;;;;;;;;6346826;28;20216;-77
2023/08/27 10:16:23;;;;;;;;;;;;;;;;;;6346164;28;19969;-77
2023/08/27 10:19:24;;;;;;;;;;;;;;;;;;6349902;27;19928;-77
2023/08/27 10:22:25;;;;;;;;;;;;;;;;;;6351368;28;19931;-77
2023/08/27 10:25:26;;;;;;;;;;;;;;;;;;6352450;28;19942;-77
2023/08/27 10:28:28;;;;;;;;;;;;;;;;;;6347287;28;19947;-76
2023/08/27 10:31:29;;;;;;;;;;;;;;;;;;6350300;28;19935;-77
2023/08/27 10:34:31;;;;;;;;;;;;;;;;;;6347746;28;19920;-77
2023/08/27 10:37:32;;;;;;;;;;;;;;;;;;6350602;28;19920;-77
2023/08/27 10:40:33;;;;;;;;;;;;;;;;;;6349018;28;19919;-77
2023/08/27 10:43:35;;;;;;;;;;;;;;;;;;6348912;28;19951;-77
2023/08/27 10:46:36;;;;;;;;;;;;;;;;;;6350740;28;19928;-76
2023/08/27 10:49:38;;;;;;;;;;;;;;;;;;6348397;28;19959;-76
2023/08/27 10:52:39;;;;;;;;;;;;;;;;;;6348740;28;20200;-79
2023/08/27 10:55:40;;;;;;;;;;;;;;;;;;6350213;28;19934;-79
2023/08/27 10:58:41;;;;;;;;;;;;;;;;;;6350572;28;19927;-76
2023/08/27 11:01:42;;;;;;;;;;;;;;;;;;6349026;28;20135;-77
2023/08/27 11:04:44;;;;;;;;;;;;;;;;;;6346919;28;20213;-76
2023/08/27 11:07:45;;;;;;;;;;;;;;;;;;6348853;28;19955;-76
2023/08/27 11:10:47;;;;;;;;;;;;;;;;;;6349096;28;19919;-76
2023/08/27 11:13:48;;;;;;;;;;;;;;;;;;6348940;28;19971;-76
2023/08/27 11:16:49;;;;;;;;;;;;;;;;;;6348538;28;19946;-79
2023/08/27 11:19:50;;;;;;;;;;;;;;;;;;6345865;28;19965;-79
2023/08/27 11:22:52;;;;;;;;;;;;;;;;;;6350210;28;19982;-76
2023/08/27 11:25:53;;;;;;;;;;;;;;;;;;6350091;28;19927;-76
2023/08/27 11:28:54;;;;;;;;;;;;;;;;;;6345529;28;19928;-76
2023/08/27 11:31:56;;;;;;;;;;;;;;;;;;6347873;28;19928;-76
2023/08/27 11:34:58;;;;;;;;;;;;;;;;;;6347287;28;19962;-76
2023/08/27 11:37:59;;;;;;;;;;;;;;;;;;6347211;28;19936;-76
2023/08/27 11:41:00;;;;;;;;;;;;;;;;;;6346925;28;20200;-76
2023/08/27 11:44:02;;;;;;;;;;;;;;;;;;6348768;28;19928;-76
2023/08/27 11:47:04;;;;;;;;;;;;;;;;;;6345998;28;20135;-76
2023/08/27 11:50:05;;;;;;;;;;;;;;;;;;6346846;28;19984;-77
2023/08/27 11:53:06;;;;;;;;;;;;;;;;;;6345071;28;19936;-76
2023/08/27 11:56:08;;;;;;;;;;;;;;;;;;6345562;28;20253;-77
2023/08/27 11:59:09;;;;;;;;;;;;;;;;;;6345795;28;19927;-76
2023/08/27 12:02:11;;;;;;;;;;;;;;;;;;6344320;28;19928;-76
2023/08/27 12:05:13;;;;;;;;;;;;;;;;;;6345676;28;19928;-76
2023/08/27 12:08:15;;;;;;;;;;;;;;;;;;6344006;28;19923;-77
2023/08/27 12:11:16;;;;;;;;;;;;;;;;;;6345100;28;19928;-77
2023/08/27 12:14:17;;;;;;;;;;;;;;;;;;6344761;28;19977;-76
2023/08/27 12:17:18;;;;;;;;;;;;;;;;;;6343234;28;19932;-76
2023/08/27 12:20:20;;;;;;;;;;;;;;;;;;6343769;28;19952;-76
2023/08/27 12:23:21;;;;;;;;;;;;;;;;;;6347471;28;19928;-76
2023/08/27 12:26:23;;;;;;;;;;;;;;;;;;6346376;28;19934;-76
2023/08/27 12:29:24;;;;;;;;;;;;;;;;;;6342335;28;20208;-78
2023/08/27 12:32:30;;;;;;;;;;;;;;;;;;6347136;28;20205;-76
2023/08/27 12:35:31;;;;;;;;;;;;;;;;;;6345676;28;20204;-76
2023/08/27 12:38:32;;;;;;;;;;;;;;;;;;6344333;28;19927;-76
2023/08/27 12:41:34;;;;;;;;;;;;;;;;;;6346055;28;20224;-76
2023/08/27 12:44:36;;;;;;;;;;;;;;;;;;6343041;28;19998;-76
2023/08/27 12:47:37;;;;;;;;;;;;;;;;;;6344566;28;19928;-76
2023/08/27 12:50:38;;;;;;;;;;;;;;;;;;6340214;28;19939;-76
2023/08/27 12:53:40;;;;;;;;;;;;;;;;;;6344989;28;19927;-76
2023/08/27 12:56:41;;;;;;;;;;;;;;;;;;6343428;28;20096;-76
2023/08/27 12:59:42;;;;;;;;;;;;;;;;;;6344712;28;19920;-76
2023/08/27 13:02:43;;;;;;;;;;;;;;;;;;6343212;28;19928;-76
2023/08/27 13:05:44;;;;;;;;;;;;;;;;;;6342842;28;19927;-76
2023/08/27 13:08:46;;;;;;;;;;;;;;;;;;6345125;28;19927;-76
2023/08/27 13:11:47;;;;;;;;;;;;;;;;;;6343774;28;19927;-76
2023/08/27 13:14:48;;;;;;;;;;;;;;;;;;6345388;28;20023;-76
2023/08/27 13:17:50;;;;;;;;;;;;;;;;;;6346108;28;19935;-76
2023/08/27 13:20:51;;;;;;;;;;;;;;;;;;6347826;28;19930;-76
2023/08/27 13:23:52;;;;;;;;;;;;;;;;;;6347574;28;19926;-76
2023/08/27 13:26:53;;;;;;;;;;;;;;;;;;6345554;28;19928;-76
2023/08/27 13:29:55;;;;;;;;;;;;;;;;;;6344717;28;19986;-76
2023/08/27 13:32:56;;;;;;;;;;;;;;;;;;6348435;28;19939;-76
2023/08/27 13:35:57;;;;;;;;;;;;;;;;;;6344495;28;19919;-76
2023/08/27 13:38:58;;;;;;;;;;;;;;;;;;6348844;28;20269;-76
2023/08/27 13:41:59;;;;;;;;;;;;;;;;;;6347971;28;20256;-76
2023/08/27 13:45:01;;;;;;;;;;;;;;;;;;6349772;28;19919;-76
2023/08/27 13:48:02;;;;;;;;;;;;;;;;;;6351329;28;19927;-76
2023/08/27 13:51:03;;;;;;;;;;;;;;;;;;6352553;28;19927;-77
2023/08/27 13:54:05;;;;;;;;;;;;;;;;;;6350254;28;19927;-76
2023/08/27 13:57:06;;;;;;;;;;;;;;;;;;6349945;28;19970;-76
2023/08/27 14:00:08;;;;;;;;;;;;;;;;;;6348544;28;20158;-77
2023/08/27 14:03:09;;;;;;;;;;;;;;;;;;6351760;28;19928;-76
2023/08/27 14:06:10;;;;;;;;;;;;;;;;;;6351166;28;19928;-77
2023/08/27 14:09:11;;;;;;;;;;;;;;;;;;6347485;28;20018;-76
2023/08/27 14:12:13;;;;;;;;;;;;;;;;;;6348523;27;19935;-76
2023/08/27 14:15:14;;;;;;;;;;;;;;;;;;6348757;28;19928;-76
2023/08/27 14:18:15;;;;;;;;;;;;;;;;;;6351082;28;20283;-76
2023/08/27 14:21:16;;;;;;;;;;;;;;;;;;6353247;28;19932;-76
2023/08/27 14:24:17;;;;;;;;;;;;;;;;;;6349196;28;19928;-76
2023/08/27 14:27:19;;;;;;;;;;;;;;;;;;6345614;28;20200;-75
2023/08/27 14:30:20;;;;;;;;;;;;;;;;;;6342839;28;19923;-75
2023/08/27 14:55:05;;;;;;;9.20;4.70;;;;;;;;;;6266415;27;24439;-82
2023/08/27 14:58:08;;;;;;;7.28;4.45;;;;;;;;;;6269807;28;20080;-82
2023/08/27 15:01:10;;;;;;;10.20;5.30;;;;;;;;;;6269866;28;20056;-80
2023/08/27 15:04:11;;;;;;;6.47;4.55;;;;;;;;;;6252237;28;20522;-80
2023/08/27 15:07:13;;;;;;;7.45;5.20;;;;;;;;;;6241669;28;20081;-79
2023/08/27 15:10:16;;;;;;;7.00;4.88;;;;;;;;;;6243877;28;20132;-79
2023/08/27 15:13:18;;;;;;;7.60;5.03;;;;;;;;;;6243927;28;20062;-78
2023/08/27 15:16:20;;;;;;;8.45;4.40;;;;;;;;;;6242603;28;20140;-78
2023/08/27 15:19:22;;;;;;;7.88;3.80;;;;;;;;;;6242641;28;20053;-78
2023/08/27 15:22:23;;;;;;;7.18;4.13;;;;;;;;;;6242831;28;20108;-78
2023/08/27 15:25:27;;;;;;;8.18;4.22;;;;;;;;;;6242075;28;20053;-78
2023/08/27 15:28:28;;;;;;;9.23;4.53;;;;;;;;;;6244608;28;20053;-78
2023/08/27 15:31:31;;;;;;;7.72;4.30;;;;;;;;;;6244312;28;20326;-78
2023/08/27 15:34:35;;;;;;;8.73;4.30;;;;;;;;;;6244334;28;20245;-78
2023/08/27 15:37:37;;;;;;;7.68;4.40;;;;;;;;;;6243331;28;20269;-78
2023/08/27 15:40:40;;;;;;;6.20;4.20;;;;;;;;;;6244213;28;20053;-78
2023/08/27 15:43:43;;;;;;;;;;;;;;;;;;6247165;28;20333;-78
2023/08/27 15:46:44;;;;;;;9.30;4.25;;;;;;;;;;6248385;28;19975;-77
2023/08/27 15:49:46;;;;;;;8.35;4.35;;;;;;;;;;6269066;28;20060;-78
2023/08/27 15:52:48;;;;;;;5.43;4.18;;;;;;;;;;6268059;28;20044;-78
2023/08/27 15:55:51;;;;;;;7.40;4.40;;;;;;;;;;6266043;28;20063;-78
2023/08/27 15:58:53;;;;;;;7.80;4.60;;;;;;;;;;6265712;28;20384;-78
2023/08/27 16:01:55;;;;;;;6.60;4.27;;;;;;;;;;6268025;28;20057;-78
2023/08/27 16:04:57;;;;;;;7.07;5.05;;;;;;;;;;6255200;28;20060;-78
2023/08/27 16:07:59;;;;;;;7.80;4.43;;;;;;;;;;6252302;28;20049;-78
2023/08/27 16:11:02;;;;;;;7.55;4.35;;;;;;;;;;6249894;28;20060;-78
2023/08/27 16:14:04;;;;;;;5.65;4.00;;;;;;;;;;6236799;28;20053;-78
2023/08/27 16:17:06;;;;;;;8.80;5.25;;;;;;;;;;6241833;28;20053;-78
2023/08/27 16:20:09;;;;;;;7.18;4.45;;;;;;;;;;6229179;28;20166;-78
2023/08/27 16:23:10;;;;;;;6.53;4.55;;;;;;;;;;6224141;28;20050;-78
2023/08/27 16:26:14;;;;;;;7.20;4.45;;;;;;;;;;6228771;28;20064;-78
2023/08/27 16:29:15;;;;;;;6.22;4.20;;;;;;;;;;6227742;28;21381;-80
2023/08/27 16:32:17;;;;;;;6.05;4.28;;;;;;;;;;6225844;28;20057;-79
2023/08/27 16:35:19;;;;;;;7.25;4.45;;;;;;;;;;6224572;28;21138;-80
2023/08/27 16:38:20;;;;;;;10.00;4.32;;;;;;;;;;6223388;28;20057;-79
2023/08/27 16:41:24;;;;;;;6.70;4.20;;;;;;;;;;6226731;28;20116;-79
2023/08/27 16:44:28;;;;;;;7.25;4.43;;;;;;;;;;6224717;28;20084;-79
2023/08/27 16:47:30;;;;;;;8.15;4.65;;;;;;;;;;6236014;28;20103;-79
2023/08/27 16:50:32;;;;;;;8.45;4.32;;;;;;;;;;6249408;28;20057;-79
2023/08/27 16:53:34;;;;;;;6.95;3.75;;;;;;;;;;6252981;28;20080;-79
2023/08/27 16:56:38;;;;;;;9.10;4.60;;;;;;;;;;6247475;28;20076;-79
2023/08/27 16:59:40;;;;;;;6.80;4.50;;;;;;;;;;6248363;28;20358;-79
2023/08/27 17:02:42;;;;;;;8.52;4.50;;;;;;;;;;6248251;28;20290;-79
2023/08/27 17:05:44;;;;;;;8.07;4.63;;;;;;;;;;6250113;28;20058;-79
2023/08/27 17:08:45;;;;;;;5.75;4.57;;;;;;;;;;6249904;28;20491;-79
2023/08/27 17:11:48;;;;;;;11.73;4.68;;;;;;;;;;6253954;28;20324;-78
2023/08/27 17:14:50;;;;;;;8.38;4.13;;;;;;;;;;6248376;28;20263;-78
2023/08/27 17:17:52;;;;;;;7.97;4.50;;;;;;;;;;6249122;28;20236;-79
2023/08/27 17:20:54;;;;;;;8.63;4.55;;;;;;;;;;6225396;28;20042;-79
2023/08/27 17:23:55;;;;;;;6.32;4.40;;;;;;;;;;6224069;28;20232;-79
2023/08/27 17:26:59;;;;;;;7.20;4.78;;;;;;;;;;6234833;28;20057;-79
2023/08/27 17:30:00;;;;;;;7.28;4.53;;;;;;;;;;6247092;28;20400;-78
2023/08/27 17:33:02;;;;;;;8.63;4.35;;;;;;;;;;6242053;28;21283;-80
2023/08/27 17:36:05;;;;;;;7.03;4.10;;;;;;;;;;6238970;28;20058;-79
2023/08/27 17:39:07;;;;;;;7.47;4.20;;;;;;;;;;6237258;28;20054;-79
2023/08/27 17:42:10;;;;;;;5.45;3.92;;;;;;;;;;6223941;28;20053;-79
2023/08/27 17:45:12;;;;;;;6.57;4.13;;;;;;;;;;6225350;28;20053;-79
2023/08/27 17:48:14;;;;;;;7.22;4.75;;;;;;;;;;6224762;28;20061;-79
2023/08/27 17:51:16;;;;;;;7.40;4.43;;;;;;;;;;6226017;28;20042;-79
2023/08/27 17:54:18;;;;;;;11.00;4.30;;;;;;;;;;6224847;28;20077;-78
2023/08/27 17:57:21;;;;;;;7.22;4.28;;;;;;;;;;6247290;28;20066;-78
2023/08/27 18:00:23;;;;;;;9.60;4.43;;;;;;;;;;6251565;28;20063;-78
2023/08/27 18:03:25;;;;;;;6.97;4.00;;;;;;;;;;6249685;28;20064;-78
2023/08/27 18:06:27;;;;;;;5.07;3.92;;;;;;;;;;6247972;28;20062;-77
2023/08/27 18:09:28;;;;;;;6.45;4.30;;;;;;;;;;6249259;28;20141;-76
2023/08/27 18:12:31;;;;;;;11.82;4.63;;;;;;;;;;6246638;28;20107;-76
2023/08/27 18:15:33;;;;;;;7.72;4.20;;;;;;;;;;6249141;28;20057;-75
2023/08/27 18:18:35;;;;;;;8.43;5.53;;;;;;;;;;6248007;28;20076;-76
2023/08/27 18:21:37;;;;;;;9.67;4.53;;;;;;;;;;6243989;28;20057;-75
2023/08/27 18:24:39;;;;;;;7.00;4.60;;;;;;;;;;6247723;28;20111;-75
2023/08/27 18:27:42;;;;;;;9.77;5.05;;;;;;;;;;6242876;28;20059;-75
2023/08/27 18:30:44;;;;;;;;;;;;;;;;;;6247797;28;20053;-77
2023/08/27 18:33:45;;;;;;;11.63;5.75;;;;;;;;;;6244706;28;20105;-78
2023/08/27 18:36:47;;;;;;;9.38;6.60;;;;;;;;;;6244918;28;20052;-77
2023/08/27 18:39:50;;;;;;;15.20;8.40;;;;;;;;;;6245989;28;20053;-77
2023/08/27 18:42:53;;;;;;;16.90;10.13;;;;;;;;;;6244702;28;20100;-78
2023/08/27 18:45:55;;;;;;;12.60;10.05;;;;;;;;;;6240958;28;20107;-78
2023/08/27 18:48:57;;;;;;;18.50;10.40;;;;;;;;;;6243540;28;20045;-80
2023/08/27 18:51:58;;;;;;;16.15;10.82;;;;;;;;;;6245688;28;20269;-79
2023/08/27 18:55:02;;;;;;;16.40;11.48;;;;;;;;;;6245340;28;20049;-81
2023/08/27 18:58:05;;;;;;;16.25;11.98;;;;;;;;;;6246975;28;20046;-81
2023/08/27 19:01:07;;;;;;;15.80;11.32;;;;;;;;;;6243005;28;20052;-81
2023/08/27 19:04:09;;;;;;;15.57;11.75;;;;;;;;;;6225554;28;20125;-79
2023/08/27 19:07:11;;;;;;;18.95;11.77;;;;;;;;;;6219227;28;20554;-80
2023/08/27 19:10:15;;;;;;;15.73;11.30;;;;;;;;;;6222674;28;20053;-73
2023/08/27 19:13:18;;;;;;;16.58;11.40;;;;;;;;;;6218825;28;20129;-73
2023/08/27 19:16:20;;;;;;;14.75;11.85;;;;;;;;;;6218829;28;20062;-73
2023/08/27 19:19:22;;;;;;;16.55;11.95;;;;;;;;;;6220235;28;20081;-78
2023/08/27 19:22:24;;;;;;;15.63;11.07;;;;;;;;;;6218495;28;20115;-78
2023/08/27 19:25:25;;;;;;;14.20;10.65;;;;;;;;;;6217984;28;20061;-79
2023/08/27 19:28:28;;;;;;;12.77;10.27;;;;;;;;;;6221969;28;20117;-79
2023/08/27 19:31:30;;;;;;;12.75;10.27;;;;;;;;;;6219480;28;20054;-79
2023/08/27 19:34:32;;;;;;;11.45;9.95;;;;;;;;;;6241848;28;20060;-79
2023/08/27 19:37:34;;;;;;;13.45;9.98;;;;;;;;;;6244069;28;20061;-79
2023/08/27 19:40:36;;;;;;;14.57;10.70;;;;;;;;;;6249103;28;20052;-79
2023/08/27 19:43:39;;;;;;;16.05;9.93;;;;;;;;;;6249620;28;20064;-78
2023/08/27 19:46:40;;;;;;;13.07;10.30;;;;;;;;;;6248398;28;20064;-79
2023/08/27 19:49:42;;;;;;;12.65;10.40;;;;;;;;;;6248245;28;20052;-79
2023/08/27 19:52:44;;;;;;;14.07;10.13;;;;;;;;;;6249711;28;20325;-79
2023/08/27 19:55:46;;;;;;;15.95;10.00;;;;;;;;;;6248928;28;20060;-78
2023/08/27 19:58:50;;;;;;;13.73;9.70;;;;;;;;;;6250960;28;20352;-78
2023/08/27 20:01:51;;;;;;;14.02;8.98;;;;;;;;;;6247951;28;20080;-79
2023/08/27 20:04:53;;;;;;;12.45;9.40;;;;;;;;;;6248552;28;20053;-78
2023/08/27 20:07:55;;;;;;;9.77;8.73;;;;;;;;;;6245774;28;20274;-78
2023/08/27 20:10:57;;;;;;;11.75;8.75;;;;;;;;;;6253238;28;20352;-79
2023/08/27 20:14:00;;;;;;;9.77;8.52;;;;;;;;;;6246257;28;20068;-78